createdAt,value
2018-01-13T00:00:32.718Z,40.24
2018-01-13T00:02:27.013Z,39.95
2018-01-13T00:03:26.922Z,39.78
2018-01-13T00:05:20.932Z,39.76
2018-01-13T00:06:20.807Z,39.95
2018-01-13T00:08:13.647Z,40.05
2018-01-13T00:09:13.596Z,39.66
2018-01-13T00:11:07.807Z,39.97
2018-01-13T00:12:07.714Z,39.95
2018-01-13T00:14:02.074Z,39.95
2018-01-13T00:15:01.728Z,39.86
2018-01-13T00:16:56.008Z,39.66
2018-01-13T00:17:55.882Z,39.76
2018-01-13T00:19:49.150Z,39.78
2018-01-13T00:20:49.051Z,40.05
2018-01-13T00:22:43.165Z,40.15
2018-01-13T00:23:43.042Z,39.95
2018-01-13T00:25:37.305Z,39.59
2018-01-13T00:26:37.216Z,39.57
2018-01-13T00:28:31.201Z,39.95
2018-01-13T00:29:31.107Z,39.57
2018-01-13T00:31:25.348Z,39.66
2018-01-13T00:32:25.272Z,39.76
2018-01-13T00:34:19.567Z,39.57
2018-01-13T00:35:19.451Z,39.95
2018-01-13T00:37:13.687Z,39.95
2018-01-13T00:38:13.583Z,39.76
2018-01-13T00:40:07.843Z,39.86
2018-01-13T00:41:07.752Z,40.17
2018-01-13T00:43:01.958Z,39.59
2018-01-13T00:44:01.872Z,40.07
2018-01-13T00:45:56.166Z,39.18
2018-01-13T00:46:56.085Z,39.49
2018-01-13T00:48:50.324Z,39.69
2018-01-13T00:49:50.244Z,39.78
2018-01-13T00:51:44.522Z,39.78
2018-01-13T00:52:44.414Z,39.47
2018-01-13T00:54:37.700Z,39.66
2018-01-13T00:55:37.607Z,39.20
2018-01-13T00:57:31.934Z,39.86
2018-01-13T00:58:31.807Z,39.76
2018-01-13T01:00:26.078Z,39.76
2018-01-13T01:01:26.010Z,39.76
2018-01-13T01:03:20.265Z,39.76
2018-01-13T01:04:20.165Z,39.66
2018-01-13T01:06:13.514Z,39.66
2018-01-13T01:07:13.416Z,39.47
2018-01-13T01:09:06.677Z,39.76
2018-01-13T01:10:06.567Z,39.76
2018-01-13T01:12:00.788Z,39.47
2018-01-13T01:13:00.738Z,39.66
2018-01-13T01:14:55.014Z,39.66
2018-01-13T01:15:54.837Z,39.76
2018-01-13T01:17:49.025Z,39.76
2018-01-13T01:18:48.936Z,39.76
2018-01-13T01:20:43.218Z,39.66
2018-01-13T01:21:43.132Z,39.86
2018-01-13T01:23:38.613Z,39.49
2018-01-13T01:24:38.561Z,39.78
2018-01-13T01:26:32.801Z,39.87
2018-01-13T01:27:32.679Z,40.07
2018-01-13T01:29:26.960Z,39.97
2018-01-13T01:30:26.849Z,39.78
2018-01-13T01:32:20.146Z,40.05
2018-01-13T01:33:20.030Z,39.86
2018-01-13T01:35:13.298Z,39.86
2018-01-13T01:36:13.196Z,40.15
2018-01-13T01:38:07.477Z,40.26
2018-01-13T01:39:07.364Z,40.24
2018-01-13T01:41:01.661Z,39.95
2018-01-13T01:42:01.561Z,40.15
2018-01-13T01:43:55.879Z,40.05
2018-01-13T01:44:55.748Z,40.15
2018-01-13T01:46:49.844Z,39.86
2018-01-13T01:47:49.737Z,39.86
2018-01-13T01:49:44.013Z,39.57
2018-01-13T01:50:43.912Z,39.95
2018-01-13T01:52:37.989Z,39.76
2018-01-13T01:53:37.907Z,39.95
2018-01-13T01:55:30.771Z,39.86
2018-01-13T01:56:30.656Z,39.86
2018-01-13T01:58:24.889Z,40.05
2018-01-13T01:59:24.799Z,39.66
2018-01-13T02:01:19.033Z,39.37
2018-01-13T02:02:18.913Z,39.57
2018-01-13T02:04:13.153Z,40.05
2018-01-13T02:05:13.075Z,39.66
2018-01-13T02:07:23.169Z,39.86
2018-01-13T02:08:23.050Z,39.76
2018-01-13T02:10:16.404Z,39.57
2018-01-13T02:11:16.315Z,39.57
2018-01-13T02:13:09.198Z,39.95
2018-01-13T02:14:09.062Z,40.15
2018-01-13T02:16:03.328Z,40.03
2018-01-13T02:17:03.234Z,39.76
2018-01-13T02:18:57.349Z,39.95
2018-01-13T02:19:57.226Z,39.37
2018-01-13T02:21:51.457Z,40.05
2018-01-13T02:22:51.369Z,39.28
2018-01-13T02:24:47.965Z,39.66
2018-01-13T02:25:47.854Z,39.57
2018-01-13T02:27:42.108Z,39.66
2018-01-13T02:28:42.021Z,40.03
2018-01-13T02:30:36.732Z,39.84
2018-01-13T02:31:36.624Z,39.86
2018-01-13T02:33:30.960Z,39.84
2018-01-13T02:34:30.791Z,39.84
2018-01-13T02:36:25.028Z,39.86
2018-01-13T02:37:24.942Z,39.84
2018-01-13T02:39:19.194Z,39.95
2018-01-13T02:40:19.111Z,40.24
2018-01-13T02:42:13.468Z,39.76
2018-01-13T02:43:13.282Z,40.24
2018-01-13T02:45:08.156Z,39.94
2018-01-13T02:46:08.050Z,39.86
2018-01-13T02:48:02.324Z,40.05
2018-01-13T02:49:02.215Z,39.94
2018-01-13T02:50:56.505Z,40.05
2018-01-13T02:51:56.393Z,40.05
2018-01-13T02:53:50.713Z,39.76
2018-01-13T02:54:50.624Z,40.05
2018-01-13T02:56:43.455Z,40.15
2018-01-13T02:57:43.414Z,40.12
2018-01-13T02:59:36.195Z,39.95
2018-01-13T03:00:36.099Z,40.32
2018-01-13T03:02:30.347Z,39.95
2018-01-13T03:03:30.262Z,39.84
2018-01-13T03:05:23.562Z,39.45
2018-01-13T03:06:23.457Z,39.66
2018-01-13T03:08:17.609Z,40.32
2018-01-13T03:09:17.526Z,39.95
2018-01-13T03:11:10.396Z,40.34
2018-01-13T03:12:10.268Z,40.12
2018-01-13T03:14:03.107Z,40.12
2018-01-13T03:15:03.041Z,40.03
2018-01-13T03:16:55.893Z,39.84
2018-01-13T03:17:55.765Z,39.94
2018-01-13T03:19:50.008Z,39.94
2018-01-13T03:20:49.921Z,40.03
2018-01-13T03:22:43.944Z,40.12
2018-01-13T03:23:43.858Z,39.74
2018-01-13T03:25:36.677Z,39.64
2018-01-13T03:26:36.583Z,39.64
2018-01-13T03:28:31.137Z,39.84
2018-01-13T03:29:30.739Z,39.64
2018-01-13T03:31:24.995Z,39.94
2018-01-13T03:32:24.899Z,39.64
2018-01-13T03:34:18.923Z,39.84
2018-01-13T03:35:18.826Z,39.84
2018-01-13T03:37:13.049Z,39.64
2018-01-13T03:38:12.967Z,39.64
2018-01-13T03:40:06.237Z,40.03
2018-01-13T03:41:06.143Z,39.64
2018-01-13T03:42:59.392Z,40.03
2018-01-13T03:43:59.313Z,39.84
2018-01-13T03:45:53.341Z,40.12
2018-01-13T03:46:53.205Z,40.12
2018-01-13T03:48:46.058Z,40.03
2018-01-13T03:49:45.972Z,39.84
2018-01-13T03:51:40.202Z,40.12
2018-01-13T03:52:40.141Z,39.45
2018-01-13T03:54:33.372Z,39.74
2018-01-13T03:55:33.279Z,39.84
2018-01-13T03:57:26.560Z,39.64
2018-01-13T03:58:26.435Z,39.74
2018-01-13T04:00:20.460Z,39.64
2018-01-13T04:01:20.327Z,39.84
2018-01-13T04:03:13.202Z,39.64
2018-01-13T04:04:13.069Z,39.36
2018-01-13T04:06:05.954Z,39.45
2018-01-13T04:07:05.817Z,39.45
2018-01-13T04:09:00.069Z,40.03
2018-01-13T04:09:59.962Z,39.64
2018-01-13T04:11:53.220Z,39.64
2018-01-13T04:12:53.124Z,40.03
2018-01-13T04:14:47.158Z,39.74
2018-01-13T04:15:47.038Z,40.12
2018-01-13T04:17:41.283Z,40.03
2018-01-13T04:18:41.206Z,39.84
2018-01-13T04:20:35.213Z,39.94
2018-01-13T04:21:35.100Z,39.84
2018-01-13T04:23:29.330Z,40.03
2018-01-13T04:24:29.241Z,39.74
2018-01-13T04:26:22.484Z,39.74
2018-01-13T04:27:22.385Z,39.64
2018-01-13T04:29:16.526Z,40.12
2018-01-13T04:30:16.442Z,39.64
2018-01-13T04:32:10.703Z,39.94
2018-01-13T04:33:10.598Z,39.74
2018-01-13T04:35:03.865Z,40.03
2018-01-13T04:36:03.783Z,40.03
2018-01-13T04:37:57.083Z,39.64
2018-01-13T04:38:56.955Z,39.54
2018-01-13T04:40:50.989Z,39.64
2018-01-13T04:41:50.909Z,40.03
2018-01-13T04:43:43.754Z,39.84
2018-01-13T04:44:43.656Z,39.64
2018-01-13T04:46:37.878Z,39.94
2018-01-13T04:47:37.791Z,40.03
2018-01-13T04:49:31.078Z,39.84
2018-01-13T04:50:30.983Z,39.94
2018-01-13T04:52:25.676Z,40.03
2018-01-13T04:53:25.586Z,39.74
2018-01-13T04:55:19.841Z,39.84
2018-01-13T04:56:19.737Z,39.64
2018-01-13T04:58:14.039Z,39.64
2018-01-13T04:59:13.964Z,39.84
2018-01-13T05:01:07.962Z,39.74
2018-01-13T05:02:07.836Z,40.22
2018-01-13T05:04:02.224Z,39.74
2018-01-13T05:05:01.983Z,39.84
2018-01-13T05:06:56.106Z,39.94
2018-01-13T05:07:55.997Z,39.64
2018-01-13T05:09:50.253Z,39.64
2018-01-13T05:10:50.172Z,39.64
2018-01-13T05:12:43.551Z,39.94
2018-01-13T05:13:43.418Z,40.22
2018-01-13T05:15:37.640Z,40.51
2018-01-13T05:16:37.554Z,40.61
2018-01-13T05:18:31.589Z,40.51
2018-01-13T05:19:31.600Z,40.70
2018-01-13T05:21:25.803Z,40.51
2018-01-13T05:22:25.691Z,40.61
2018-01-13T05:24:19.865Z,40.42
2018-01-13T05:25:19.748Z,40.42
2018-01-13T05:27:13.990Z,39.94
2018-01-13T05:28:13.929Z,40.01
2018-01-13T05:30:07.941Z,40.01
2018-01-13T05:31:07.824Z,40.42
2018-01-13T05:33:02.058Z,40.32
2018-01-13T05:34:01.972Z,40.03
2018-01-13T05:35:56.589Z,40.03
2018-01-13T05:36:56.494Z,39.74
2018-01-13T05:38:50.712Z,40.03
2018-01-13T05:39:50.635Z,39.74
2018-01-13T05:41:44.951Z,39.84
2018-01-13T05:42:44.836Z,39.26
2018-01-13T05:44:38.843Z,39.26
2018-01-13T05:45:38.734Z,39.84
2018-01-13T05:47:32.999Z,39.64
2018-01-13T05:48:32.890Z,39.54
2018-01-13T05:50:27.181Z,39.54
2018-01-13T05:51:27.098Z,39.74
2018-01-13T05:53:21.367Z,39.74
2018-01-13T05:54:21.262Z,39.54
2018-01-13T05:56:15.239Z,40.03
2018-01-13T05:57:15.223Z,39.72
2018-01-13T05:59:10.426Z,39.54
2018-01-13T06:00:10.318Z,40.12
2018-01-13T06:02:04.607Z,39.94
2018-01-13T06:03:04.522Z,39.91
2018-01-13T06:04:58.782Z,39.74
2018-01-13T06:05:58.688Z,39.84
2018-01-13T06:07:52.695Z,40.03
2018-01-13T06:08:52.602Z,39.94
2018-01-13T06:10:45.470Z,39.64
2018-01-13T06:11:45.376Z,39.64
2018-01-13T06:13:38.313Z,39.91
2018-01-13T06:14:38.199Z,39.64
2018-01-13T06:16:31.580Z,39.84
2018-01-13T06:17:31.465Z,39.72
2018-01-13T06:19:25.846Z,39.74
2018-01-13T06:20:25.766Z,39.84
2018-01-13T06:22:20.029Z,40.03
2018-01-13T06:23:19.942Z,40.03
2018-01-13T06:25:14.189Z,40.20
2018-01-13T06:26:14.099Z,40.32
2018-01-13T06:28:08.403Z,39.84
2018-01-13T06:29:08.290Z,39.74
2018-01-13T06:31:02.562Z,40.70
2018-01-13T06:32:02.481Z,40.51
2018-01-13T06:33:56.750Z,39.84
2018-01-13T06:34:56.640Z,39.84
2018-01-13T06:36:50.853Z,39.94
2018-01-13T06:37:50.762Z,39.94
2018-01-13T06:39:45.141Z,40.22
2018-01-13T06:40:44.944Z,40.32
2018-01-13T06:42:39.164Z,40.03
2018-01-13T06:43:39.080Z,39.84
2018-01-13T06:45:32.340Z,39.72
2018-01-13T06:46:32.254Z,39.74
2018-01-13T06:48:26.604Z,39.84
2018-01-13T06:49:26.258Z,39.64
2018-01-13T06:51:20.495Z,39.53
2018-01-13T06:52:20.395Z,39.82
2018-01-13T06:54:14.698Z,40.12
2018-01-13T06:55:14.600Z,39.94
2018-01-13T06:57:21.722Z,39.82
2018-01-13T06:58:21.617Z,40.01
2018-01-13T07:00:15.848Z,39.84
2018-01-13T07:01:15.779Z,39.82
2018-01-13T07:03:14.989Z,40.20
2018-01-13T07:04:14.885Z,40.03
2018-01-13T07:06:09.157Z,39.91
2018-01-13T07:07:09.077Z,39.94
2018-01-13T07:09:02.353Z,39.82
2018-01-13T07:10:02.245Z,40.03
2018-01-13T07:11:55.552Z,39.84
2018-01-13T07:12:55.466Z,39.74
2018-01-13T07:14:49.727Z,39.26
2018-01-13T07:15:49.617Z,40.03
2018-01-13T07:17:43.882Z,39.54
2018-01-13T07:18:43.789Z,39.45
2018-01-13T07:20:38.083Z,39.43
2018-01-13T07:21:37.966Z,39.34
2018-01-13T07:23:32.228Z,39.26
2018-01-13T07:24:32.150Z,40.01
2018-01-13T07:26:26.414Z,39.54
2018-01-13T07:27:26.310Z,39.26
2018-01-13T07:29:20.542Z,39.94
2018-01-13T07:30:20.471Z,40.03
2018-01-13T07:32:14.466Z,39.64
2018-01-13T07:33:14.372Z,40.03
2018-01-13T07:35:07.297Z,39.82
2018-01-13T07:36:07.217Z,40.01
2018-01-13T07:38:01.485Z,39.84
2018-01-13T07:39:01.362Z,40.03
2018-01-13T07:40:55.655Z,40.03
2018-01-13T07:41:55.558Z,40.12
2018-01-13T07:43:49.857Z,39.94
2018-01-13T07:44:49.751Z,40.11
2018-01-13T07:46:43.001Z,40.12
2018-01-13T07:47:42.920Z,40.01
2018-01-13T07:49:37.192Z,39.64
2018-01-13T07:50:37.066Z,39.84
2018-01-13T07:52:31.349Z,39.45
2018-01-13T07:53:31.259Z,39.54
2018-01-13T07:55:25.383Z,39.72
2018-01-13T07:56:25.280Z,40.12
2018-01-13T07:58:19.564Z,40.11
2018-01-13T07:59:19.447Z,39.84
2018-01-13T08:01:13.734Z,39.91
2018-01-13T08:02:13.635Z,39.94
2018-01-13T08:04:06.898Z,40.01
2018-01-13T08:05:06.808Z,40.03
2018-01-13T08:07:01.198Z,39.84
2018-01-13T08:08:00.950Z,39.94
2018-01-13T08:09:55.237Z,39.82
2018-01-13T08:10:55.150Z,40.11
2018-01-13T08:12:49.447Z,40.12
2018-01-13T08:13:49.336Z,39.72
2018-01-13T08:15:43.614Z,40.12
2018-01-13T08:16:43.525Z,40.01
2018-01-13T08:18:37.889Z,40.01
2018-01-13T08:19:37.604Z,39.74
2018-01-13T08:21:31.873Z,39.62
2018-01-13T08:22:31.782Z,40.01
2018-01-13T08:24:25.880Z,39.64
2018-01-13T08:25:25.772Z,39.64
2018-01-13T08:27:20.005Z,40.03
2018-01-13T08:28:19.919Z,39.91
2018-01-13T08:30:13.965Z,40.12
2018-01-13T08:31:13.826Z,39.72
2018-01-13T08:33:06.763Z,39.91
2018-01-13T08:34:06.683Z,39.84
2018-01-13T08:35:59.630Z,39.72
2018-01-13T08:36:59.544Z,39.62
2018-01-13T08:38:52.470Z,39.72
2018-01-13T08:39:52.387Z,39.72
2018-01-13T08:41:46.647Z,39.53
2018-01-13T08:42:46.525Z,39.91
2018-01-13T08:44:40.627Z,39.72
2018-01-13T08:45:40.554Z,40.01
2018-01-13T08:47:34.872Z,39.74
2018-01-13T08:48:34.758Z,39.72
2018-01-13T08:50:28.003Z,39.74
2018-01-13T08:51:27.944Z,39.72
2018-01-13T08:53:22.203Z,39.34
2018-01-13T08:54:22.097Z,39.72
2018-01-13T08:56:16.293Z,39.64
2018-01-13T08:57:16.863Z,39.74
2018-01-13T08:59:10.512Z,39.62
2018-01-13T09:00:10.412Z,39.43
2018-01-13T09:02:04.680Z,40.01
2018-01-13T09:03:04.590Z,39.34
2018-01-13T09:04:57.871Z,39.24
2018-01-13T09:05:57.774Z,40.11
2018-01-13T09:07:51.061Z,39.82
2018-01-13T09:08:50.955Z,40.11
2018-01-13T09:10:45.226Z,39.72
2018-01-13T09:11:45.124Z,39.84
2018-01-13T09:13:39.538Z,40.03
2018-01-13T09:14:39.324Z,39.91
2018-01-13T09:16:33.595Z,40.11
2018-01-13T09:17:33.490Z,39.74
2018-01-13T09:19:27.759Z,40.22
2018-01-13T09:20:27.665Z,39.82
2018-01-13T09:22:21.923Z,39.82
2018-01-13T09:23:21.816Z,40.01
2018-01-13T09:25:15.833Z,40.11
2018-01-13T09:26:15.731Z,40.03
2018-01-13T09:28:08.678Z,40.03
2018-01-13T09:29:08.573Z,39.36
2018-01-13T09:31:02.855Z,39.54
2018-01-13T09:32:02.753Z,39.43
2018-01-13T09:33:56.770Z,39.43
2018-01-13T09:34:56.638Z,39.14
2018-01-13T09:36:50.874Z,39.72
2018-01-13T09:37:50.795Z,39.72
2018-01-13T09:39:45.067Z,40.01
2018-01-13T09:40:44.936Z,39.91
2018-01-13T09:42:39.022Z,39.53
2018-01-13T09:43:38.883Z,40.03
2018-01-13T09:45:31.838Z,39.91
2018-01-13T09:46:31.739Z,39.72
2018-01-13T09:48:24.670Z,39.91
2018-01-13T09:49:24.574Z,39.72
2018-01-13T09:51:17.571Z,40.03
2018-01-13T09:52:17.491Z,40.01
2018-01-13T09:54:10.381Z,39.74
2018-01-13T09:55:10.295Z,39.53
2018-01-13T09:57:03.665Z,39.74
2018-01-13T09:58:03.173Z,39.82
2018-01-13T09:59:57.473Z,39.84
2018-01-13T10:00:57.348Z,39.74
2018-01-13T10:02:51.658Z,39.82
2018-01-13T10:03:51.569Z,39.53
2018-01-13T10:05:44.851Z,39.53
2018-01-13T10:06:44.763Z,39.62
2018-01-13T10:08:39.147Z,39.62
2018-01-13T10:09:39.003Z,39.72
2018-01-13T10:11:32.270Z,39.53
2018-01-13T10:12:32.164Z,39.72
2018-01-13T10:14:26.530Z,39.43
2018-01-13T10:15:26.391Z,39.53
2018-01-13T10:17:19.609Z,39.26
2018-01-13T10:18:19.543Z,39.53
2018-01-13T10:20:13.801Z,39.62
2018-01-13T10:21:13.698Z,39.82
2018-01-13T10:23:07.719Z,39.54
2018-01-13T10:24:07.629Z,40.12
2018-01-13T10:26:02.148Z,39.64
2018-01-13T10:27:01.767Z,39.82
2018-01-13T10:28:55.667Z,40.01
2018-01-13T10:29:55.602Z,39.62
2018-01-13T10:31:49.852Z,39.62
2018-01-13T10:32:49.725Z,39.82
2018-01-13T10:34:45.064Z,39.84
2018-01-13T10:35:43.913Z,40.42
2018-01-13T10:37:38.081Z,41.57
2018-01-13T10:38:37.931Z,41.38
2018-01-13T10:40:32.282Z,41.57
2018-01-13T10:41:32.088Z,41.86
2018-01-13T10:43:26.857Z,41.57
2018-01-13T10:44:26.279Z,41.86
2018-01-13T10:46:20.476Z,41.67
2018-01-13T10:47:20.394Z,41.67
2018-01-13T10:49:14.557Z,41.09
2018-01-13T10:50:14.448Z,41.38
2018-01-13T10:52:07.279Z,41.67
2018-01-13T10:53:07.197Z,41.67
2018-01-13T10:55:01.461Z,41.30
2018-01-13T10:56:01.367Z,40.63
2018-01-13T10:57:55.622Z,40.80
2018-01-13T10:58:55.537Z,40.70
2018-01-13T11:00:49.560Z,40.99
2018-01-13T11:01:49.445Z,40.70
2018-01-13T11:03:42.399Z,40.99
2018-01-13T11:04:42.291Z,40.80
2018-01-13T11:06:35.140Z,40.90
2018-01-13T11:07:35.039Z,40.90
2018-01-13T11:09:29.297Z,40.51
2018-01-13T11:10:29.199Z,40.90
2018-01-13T11:12:22.458Z,40.51
2018-01-13T11:13:22.358Z,40.32
2018-01-13T11:15:16.362Z,40.42
2018-01-13T11:16:16.267Z,40.34
2018-01-13T11:18:09.117Z,39.95
2018-01-13T11:19:09.008Z,40.15
2018-01-13T11:21:01.835Z,40.03
2018-01-13T11:22:01.754Z,39.84
2018-01-13T11:23:54.608Z,40.05
2018-01-13T11:24:54.499Z,40.34
2018-01-13T11:26:48.771Z,40.05
2018-01-13T11:27:48.659Z,39.66
2018-01-13T11:29:41.983Z,39.95
2018-01-13T11:30:41.869Z,39.86
2018-01-13T11:32:35.809Z,39.54
2018-01-13T11:33:35.718Z,39.66
2018-01-13T11:35:30.046Z,40.03
2018-01-13T11:36:29.910Z,39.36
2018-01-13T11:38:24.213Z,39.47
2018-01-13T11:39:24.132Z,39.66
2018-01-13T11:41:18.189Z,39.66
2018-01-13T11:42:18.064Z,39.66
2018-01-13T11:44:12.285Z,39.37
2018-01-13T11:45:12.198Z,39.66
2018-01-13T11:47:06.454Z,39.47
2018-01-13T11:48:06.336Z,39.28
2018-01-13T11:50:00.603Z,39.84
2018-01-13T11:51:00.504Z,39.47
2018-01-13T11:52:54.747Z,39.57
2018-01-13T11:53:54.390Z,39.28
2018-01-13T11:55:47.228Z,39.57
2018-01-13T11:56:47.141Z,39.47
2018-01-13T11:58:41.391Z,39.57
2018-01-13T11:59:41.281Z,39.28
2018-01-13T12:01:38.263Z,39.28
2018-01-13T12:02:38.178Z,39.47
2018-01-13T12:04:31.543Z,39.18
2018-01-13T12:05:31.423Z,39.45
2018-01-13T12:07:25.660Z,39.28
2018-01-13T12:08:25.565Z,39.47
2018-01-13T12:10:18.866Z,39.28
2018-01-13T12:11:18.762Z,39.18
2018-01-13T12:13:13.062Z,39.09
2018-01-13T12:14:12.980Z,39.37
2018-01-13T12:16:07.480Z,38.99
2018-01-13T12:17:07.355Z,39.18
2018-01-13T12:19:01.601Z,39.18
2018-01-13T12:20:01.501Z,39.18
2018-01-13T12:21:55.522Z,39.18
2018-01-13T12:22:55.402Z,39.28
2018-01-13T12:24:48.237Z,39.18
2018-01-13T12:25:48.151Z,39.18
2018-01-13T12:27:42.466Z,39.47
2018-01-13T12:28:42.353Z,39.18
2018-01-13T12:30:41.348Z,39.28
2018-01-13T12:31:41.245Z,39.37
2018-01-13T12:33:34.615Z,39.28
2018-01-13T12:34:34.493Z,39.37
2018-01-13T12:36:28.722Z,39.18
2018-01-13T12:37:28.637Z,39.28
2018-01-13T12:39:22.909Z,39.18
2018-01-13T12:40:22.808Z,39.18
2018-01-13T12:42:25.748Z,39.47
2018-01-13T12:43:25.657Z,39.18
2018-01-13T12:45:18.505Z,39.09
2018-01-13T12:46:18.386Z,39.18
2018-01-13T12:48:12.637Z,38.99
2018-01-13T12:49:12.539Z,38.99
2018-01-13T12:51:05.812Z,39.37
2018-01-13T12:52:05.714Z,39.09
2018-01-13T12:53:59.965Z,38.99
2018-01-13T12:54:59.865Z,39.18
2018-01-13T12:56:54.335Z,38.89
2018-01-13T12:57:54.216Z,38.79
2018-01-13T12:59:48.456Z,39.47
2018-01-13T13:00:48.345Z,38.99
2018-01-13T13:02:44.112Z,38.70
2018-01-13T13:03:44.014Z,39.37
2018-01-13T13:05:38.247Z,38.89
2018-01-13T13:06:38.175Z,38.99
2018-01-13T13:08:31.455Z,39.66
2018-01-13T13:09:31.356Z,39.28
2018-01-13T13:11:25.511Z,39.09
2018-01-13T13:12:25.429Z,39.37
2018-01-13T13:14:19.723Z,39.09
2018-01-13T13:15:19.599Z,38.89
2018-01-13T13:17:13.886Z,39.28
2018-01-13T13:18:13.803Z,38.79
2018-01-13T13:20:06.681Z,38.79
2018-01-13T13:21:06.536Z,38.99
2018-01-13T13:23:00.800Z,38.89
2018-01-13T13:24:00.721Z,38.51
2018-01-13T13:25:54.992Z,39.47
2018-01-13T13:26:54.887Z,39.09
2018-01-13T13:28:49.181Z,39.09
2018-01-13T13:29:49.093Z,39.28
2018-01-13T13:31:43.066Z,39.86
2018-01-13T13:32:42.976Z,39.57
2018-01-13T13:34:37.206Z,38.89
2018-01-13T13:35:37.111Z,39.18
2018-01-13T13:37:30.404Z,38.89
2018-01-13T13:38:30.328Z,38.99
2018-01-13T13:40:23.564Z,39.09
2018-01-13T13:41:23.491Z,38.79
2018-01-13T13:43:17.459Z,38.99
2018-01-13T13:44:17.344Z,38.89
2018-01-13T13:46:11.595Z,38.89
2018-01-13T13:47:11.508Z,38.79
2018-01-13T13:49:05.548Z,38.70
2018-01-13T13:50:05.449Z,38.60
2018-01-13T13:51:58.257Z,39.37
2018-01-13T13:52:58.165Z,39.18
2018-01-13T13:54:52.788Z,39.28
2018-01-13T13:55:52.313Z,39.18
2018-01-13T13:57:45.611Z,39.37
2018-01-13T13:58:45.515Z,38.91
2018-01-13T14:00:38.782Z,38.79
2018-01-13T14:01:38.701Z,38.89
2018-01-13T14:03:33.357Z,38.89
2018-01-13T14:04:33.244Z,38.51
2018-01-13T14:06:27.510Z,38.70
2018-01-13T14:07:27.395Z,38.79
2018-01-13T14:09:21.406Z,38.89
2018-01-13T14:10:21.296Z,39.37
2018-01-13T14:12:15.626Z,39.37
2018-01-13T14:13:15.520Z,39.76
2018-01-13T14:15:09.584Z,40.44
2018-01-13T14:16:09.484Z,40.44
2018-01-13T14:18:02.336Z,40.53
2018-01-13T14:19:02.242Z,40.53
2018-01-13T14:20:55.053Z,40.34
2018-01-13T14:21:54.982Z,40.15
2018-01-13T14:23:49.213Z,40.24
2018-01-13T14:24:49.104Z,40.15
2018-01-13T14:26:43.376Z,39.95
2018-01-13T14:27:43.242Z,40.05
2018-01-13T14:29:37.526Z,40.15
2018-01-13T14:30:37.410Z,39.66
2018-01-13T14:32:31.679Z,40.15
2018-01-13T14:33:31.599Z,39.37
2018-01-13T14:35:25.881Z,39.37
2018-01-13T14:36:25.795Z,39.47
2018-01-13T14:38:20.037Z,39.47
2018-01-13T14:39:19.950Z,39.28
2018-01-13T14:41:13.502Z,39.47
2018-01-13T14:42:13.137Z,39.28
2018-01-13T14:44:07.373Z,39.47
2018-01-13T14:45:07.292Z,39.86
2018-01-13T14:47:01.922Z,39.28
2018-01-13T14:48:01.797Z,39.47
2018-01-13T14:49:56.042Z,38.99
2018-01-13T14:50:55.948Z,39.37
2018-01-13T14:52:50.261Z,39.28
2018-01-13T14:53:50.167Z,39.47
2018-01-13T14:55:44.123Z,39.28
2018-01-13T14:56:44.043Z,39.09
2018-01-13T14:58:38.288Z,39.01
2018-01-13T14:59:38.237Z,39.29
2018-01-13T15:01:31.454Z,38.91
2018-01-13T15:02:31.369Z,38.81
2018-01-13T15:04:24.927Z,38.79
2018-01-13T15:05:24.550Z,38.70
2018-01-13T15:07:17.787Z,38.79
2018-01-13T15:08:17.709Z,38.60
2018-01-13T15:10:11.020Z,38.41
2018-01-13T15:11:10.913Z,38.60
2018-01-13T15:13:05.209Z,38.70
2018-01-13T15:14:05.105Z,38.79
2018-01-13T15:15:59.424Z,38.60
2018-01-13T15:16:59.299Z,38.41
2018-01-13T15:18:52.566Z,38.41
2018-01-13T15:19:52.485Z,38.31
2018-01-13T15:21:45.763Z,38.21
2018-01-13T15:22:45.652Z,38.21
2018-01-13T15:24:38.918Z,38.41
2018-01-13T15:25:38.835Z,38.41
2018-01-13T15:27:33.103Z,38.31
2018-01-13T15:28:33.004Z,38.51
2018-01-13T15:30:26.266Z,38.41
2018-01-13T15:31:26.174Z,38.31
2018-01-13T15:33:19.461Z,38.21
2018-01-13T15:34:19.350Z,38.12
2018-01-13T15:36:12.645Z,38.21
2018-01-13T15:37:12.561Z,38.31
2018-01-13T15:39:06.817Z,38.41
2018-01-13T15:40:06.709Z,38.21
2018-01-13T15:41:59.996Z,38.21
2018-01-13T15:42:59.913Z,38.12
2018-01-13T15:44:54.250Z,38.41
2018-01-13T15:45:54.144Z,38.51
2018-01-13T15:47:48.423Z,38.41
2018-01-13T15:48:48.350Z,38.31
2018-01-13T15:50:42.636Z,38.21
2018-01-13T15:51:42.507Z,38.12
2018-01-13T15:53:36.775Z,38.41
2018-01-13T15:54:36.683Z,37.63
2018-01-13T15:56:30.947Z,37.63
2018-01-13T15:57:30.825Z,37.54
2018-01-13T15:59:25.151Z,37.37
2018-01-13T16:00:25.017Z,37.45
2018-01-13T16:02:19.300Z,37.85
2018-01-13T16:03:19.204Z,37.75
2018-01-13T16:05:13.525Z,37.65
2018-01-13T16:06:13.482Z,37.56
2018-01-13T16:08:07.758Z,37.46
2018-01-13T16:09:07.659Z,37.65
2018-01-13T16:11:00.916Z,37.37
2018-01-13T16:12:00.823Z,37.56
2018-01-13T16:13:55.084Z,37.56
2018-01-13T16:14:54.981Z,37.37
2018-01-13T16:16:48.211Z,37.56
2018-01-13T16:17:48.122Z,37.65
2018-01-13T16:19:42.454Z,37.56
2018-01-13T16:20:42.352Z,37.56
2018-01-13T16:22:36.575Z,37.37
2018-01-13T16:23:36.516Z,37.65
2018-01-13T16:25:30.778Z,37.65
2018-01-13T16:26:30.657Z,37.75
2018-01-13T16:28:24.943Z,37.85
2018-01-13T16:29:24.865Z,38.23
2018-01-13T16:31:20.122Z,38.62
2018-01-13T16:32:19.066Z,38.33
2018-01-13T16:34:13.403Z,38.53
2018-01-13T16:35:13.216Z,38.53
2018-01-13T16:37:06.489Z,38.43
2018-01-13T16:38:06.364Z,38.53
2018-01-13T16:39:59.624Z,38.14
2018-01-13T16:40:59.546Z,38.04
2018-01-13T16:42:52.889Z,38.33
2018-01-13T16:43:52.736Z,38.33
2018-01-13T16:45:47.006Z,37.95
2018-01-13T16:46:46.915Z,38.14
2018-01-13T16:48:41.198Z,37.85
2018-01-13T16:49:41.119Z,37.75
2018-01-13T16:51:34.385Z,37.85
2018-01-13T16:52:34.292Z,37.56
2018-01-13T16:54:27.592Z,37.73
2018-01-13T16:55:27.478Z,37.83
2018-01-13T16:57:20.713Z,37.83
2018-01-13T16:58:20.660Z,37.63
2018-01-13T17:00:15.084Z,37.63
2018-01-13T17:01:14.985Z,37.73
2018-01-13T17:03:09.251Z,37.63
2018-01-13T17:04:09.160Z,37.73
2018-01-13T17:06:02.464Z,37.63
2018-01-13T17:07:02.358Z,37.54
2018-01-13T17:08:55.622Z,37.63
2018-01-13T17:09:55.524Z,37.35
2018-01-13T17:11:48.856Z,37.15
2018-01-13T17:12:49.294Z,37.35
2018-01-13T17:14:43.114Z,37.06
2018-01-13T17:15:42.865Z,37.15
2018-01-13T17:17:37.132Z,37.63
2018-01-13T17:18:36.958Z,37.54
2018-01-13T17:20:33.783Z,37.25
2018-01-13T17:21:33.597Z,37.45
2018-01-13T17:23:27.973Z,37.35
2018-01-13T17:24:27.876Z,37.25
2018-01-13T17:26:21.110Z,37.35
2018-01-13T17:27:21.028Z,37.35
2018-01-13T17:29:15.352Z,37.35
2018-01-13T17:30:15.201Z,37.35
2018-01-13T17:32:09.448Z,37.63
2018-01-13T17:33:09.367Z,37.54
2018-01-13T17:35:03.672Z,37.54
2018-01-13T17:36:03.570Z,37.45
2018-01-13T17:37:56.829Z,37.63
2018-01-13T17:38:56.722Z,37.54
2018-01-13T17:40:49.992Z,37.35
2018-01-13T17:41:49.890Z,37.35
2018-01-13T17:43:44.162Z,37.25
2018-01-13T17:44:44.096Z,37.35
2018-01-13T17:46:38.423Z,37.25
2018-01-13T17:47:38.311Z,37.45
2018-01-13T17:49:32.583Z,37.73
2018-01-13T17:50:32.503Z,37.54
2018-01-13T17:52:26.758Z,37.83
2018-01-13T17:53:26.661Z,37.93
2018-01-13T17:55:20.942Z,37.75
2018-01-13T17:56:20.859Z,37.63
2018-01-13T17:58:14.135Z,37.63
2018-01-13T17:59:14.047Z,37.54
2018-01-13T18:01:07.331Z,37.73
2018-01-13T18:02:07.230Z,37.63
2018-01-13T18:04:00.518Z,37.54
2018-01-13T18:05:00.404Z,37.35
2018-01-13T18:06:54.665Z,37.35
2018-01-13T18:07:54.541Z,37.35
2018-01-13T18:09:47.902Z,37.54
2018-01-13T18:10:47.778Z,37.93
2018-01-13T18:12:42.091Z,37.83
2018-01-13T18:13:41.964Z,37.83
2018-01-13T18:15:36.292Z,37.63
2018-01-13T18:16:36.187Z,37.54
2018-01-13T18:18:30.506Z,37.35
2018-01-13T18:19:30.407Z,37.37
2018-01-13T18:21:24.690Z,37.37
2018-01-13T18:22:24.563Z,37.27
2018-01-13T18:24:18.863Z,37.17
2018-01-13T18:25:18.781Z,37.37
2018-01-13T18:27:13.049Z,37.27
2018-01-13T18:28:12.934Z,37.08
2018-01-13T18:30:07.194Z,37.37
2018-01-13T18:31:07.105Z,37.37
2018-01-13T18:33:01.390Z,37.27
2018-01-13T18:34:01.276Z,37.17
2018-01-13T18:35:55.534Z,37.17
2018-01-13T18:36:55.444Z,37.08
2018-01-13T18:38:49.731Z,37.27
2018-01-13T18:39:49.621Z,37.17